sensor_id;sensor_type;location;lat;lon;timestamp;pressure;altitude;pressure_sealevel;temperature;humidity
74893;BME280;63446;56.272;43.922;2023-04-24T00:00:18;100769.53;;;13.24;43.85
74893;BME280;63446;56.272;43.922;2023-04-24T00:02:44;100772.69;;;13.20;44.00
74893;BME280;63446;56.272;43.922;2023-04-24T00:05:17;100771.13;;;13.14;43.88
74893;BME280;63446;56.272;43.922;2023-04-24T00:07:44;100776.97;;;13.16;43.76
74893;BME280;63446;56.272;43.922;2023-04-24T00:10:11;100772.50;;;13.12;43.85
74893;BME280;63446;56.272;43.922;2023-04-24T00:12:39;100777.00;;;13.11;44.12
74893;BME280;63446;56.272;43.922;2023-04-24T00:15:05;100777.56;;;13.08;44.00
74893;BME280;63446;56.272;43.922;2023-04-24T00:17:32;100780.50;;;13.07;44.14
74893;BME280;63446;56.272;43.922;2023-04-24T00:19:58;100778.38;;;13.04;43.94
74893;BME280;63446;56.272;43.922;2023-04-24T00:22:26;100772.28;;;13.03;44.00
74893;BME280;63446;56.272;43.922;2023-04-24T00:24:52;100772.03;;;13.00;44.06
74893;BME280;63446;56.272;43.922;2023-04-24T00:27:17;100780.25;;;12.98;43.99
74893;BME280;63446;56.272;43.922;2023-04-24T00:29:43;100774.44;;;12.96;44.30
74893;BME280;63446;56.272;43.922;2023-04-24T00:32:09;100775.00;;;12.93;44.24
74893;BME280;63446;56.272;43.922;2023-04-24T00:34:35;100782.41;;;12.91;44.46
74893;BME280;63446;56.272;43.922;2023-04-24T00:37:01;100778.72;;;12.87;44.53
74893;BME280;63446;56.272;43.922;2023-04-24T00:39:27;100778.72;;;12.87;44.72
74893;BME280;63446;56.272;43.922;2023-04-24T00:41:53;100780.34;;;12.83;44.98
74893;BME280;63446;56.272;43.922;2023-04-24T00:44:19;100782.72;;;12.79;45.07
74893;BME280;63446;56.272;43.922;2023-04-24T00:46:46;100785.97;;;12.76;45.24
74893;BME280;63446;56.272;43.922;2023-04-24T00:49:21;100783.31;;;12.71;45.34
74893;BME280;63446;56.272;43.922;2023-04-24T00:51:47;100780.69;;;12.66;45.40
74893;BME280;63446;56.272;43.922;2023-04-24T00:54:16;100783.59;;;12.64;45.48
74893;BME280;63446;56.272;43.922;2023-04-24T00:56:42;100782.56;;;12.60;45.56
74893;BME280;63446;56.272;43.922;2023-04-24T00:59:11;100783.38;;;12.56;45.67
74893;BME280;63446;56.272;43.922;2023-04-24T01:01:39;100776.78;;;12.53;45.74
74893;BME280;63446;56.272;43.922;2023-04-24T01:04:09;100779.97;;;12.50;45.86
74893;BME280;63446;56.272;43.922;2023-04-24T01:06:38;100777.84;;;12.47;45.98
74893;BME280;63446;56.272;43.922;2023-04-24T01:09:05;100786.31;;;12.44;45.82
74893;BME280;63446;56.272;43.922;2023-04-24T01:11:31;100781.56;;;12.41;46.02
74893;BME280;63446;56.272;43.922;2023-04-24T01:13:57;100782.91;;;12.38;46.09
74893;BME280;63446;56.272;43.922;2023-04-24T01:16:24;100784.53;;;12.34;45.95
74893;BME280;63446;56.272;43.922;2023-04-24T01:18:50;100787.16;;;12.34;46.03
74893;BME280;63446;56.272;43.922;2023-04-24T01:21:18;100779.47;;;12.33;45.90
74893;BME280;63446;56.272;43.922;2023-04-24T01:23:47;100779.75;;;12.31;45.83
74893;BME280;63446;56.272;43.922;2023-04-24T01:26:16;100780.53;;;12.32;46.07
74893;BME280;63446;56.272;43.922;2023-04-24T01:28:44;100777.09;;;12.31;46.09
74893;BME280;63446;56.272;43.922;2023-04-24T01:31:10;100777.09;;;12.31;46.16
74893;BME280;63446;56.272;43.922;2023-04-24T01:33:36;100774.44;;;12.31;46.15
74893;BME280;63446;56.272;43.922;2023-04-24T01:36:02;100776.81;;;12.33;46.15
74893;BME280;63446;56.272;43.922;2023-04-24T01:38:28;100780.00;;;12.35;46.16
74893;BME280;63446;56.272;43.922;2023-04-24T01:40:54;100777.06;;;12.36;46.08
74893;BME280;63446;56.272;43.922;2023-04-24T01:43:20;100783.97;;;12.37;46.12
74893;BME280;63446;56.272;43.922;2023-04-24T01:45:47;100778.41;;;12.39;46.15
74893;BME280;63446;56.272;43.922;2023-04-24T01:48:13;100783.16;;;12.42;46.28
74893;BME280;63446;56.272;43.922;2023-04-24T01:50:39;100784.72;;;12.48;46.37
74893;BME280;63446;56.272;43.922;2023-04-24T01:53:05;100777.81;;;12.52;46.24
74893;BME280;63446;56.272;43.922;2023-04-24T01:55:31;100787.84;;;12.60;46.17
74893;BME280;63446;56.272;43.922;2023-04-24T01:57:59;100788.91;;;12.69;46.12
74893;BME280;63446;56.272;43.922;2023-04-24T02:00:25;100792.22;;;12.95;45.75
74893;BME280;63446;56.272;43.922;2023-04-24T02:02:53;100788.91;;;13.58;45.12
74893;BME280;63446;56.272;43.922;2023-04-24T02:05:19;100794.22;;;14.40;44.07
74893;BME280;63446;56.272;43.922;2023-04-24T02:07:45;100792.69;;;15.39;42.88
74893;BME280;63446;56.272;43.922;2023-04-24T02:10:11;100787.41;;;16.46;41.42
74893;BME280;63446;56.272;43.922;2023-04-24T02:12:43;100786.50;;;17.59;39.64
74893;BME280;63446;56.272;43.922;2023-04-24T02:15:09;100799.59;;;18.71;38.23
74893;BME280;63446;56.272;43.922;2023-04-24T02:17:38;100799.59;;;19.84;36.86
74893;BME280;63446;56.272;43.922;2023-04-24T02:20:06;100801.28;;;20.95;35.34
74893;BME280;63446;56.272;43.922;2023-04-24T02:22:32;100790.97;;;21.97;33.98
74893;BME280;63446;56.272;43.922;2023-04-24T02:25:01;100804.50;;;23.10;32.82
74893;BME280;63446;56.272;43.922;2023-04-24T02:27:33;100801.44;;;24.16;31.17
74893;BME280;63446;56.272;43.922;2023-04-24T02:30:00;100807.16;;;25.16;30.06
74893;BME280;63446;56.272;43.922;2023-04-24T02:32:31;100806.66;;;26.18;29.13
74893;BME280;63446;56.272;43.922;2023-04-24T02:34:57;100808.00;;;27.15;28.10
74893;BME280;63446;56.272;43.922;2023-04-24T02:37:23;100812.03;;;28.13;27.17
74893;BME280;63446;56.272;43.922;2023-04-24T02:39:49;100813.41;;;29.10;26.20
74893;BME280;63446;56.272;43.922;2023-04-24T02:42:15;100815.84;;;29.94;25.48
74893;BME280;63446;56.272;43.922;2023-04-24T02:44:41;100820.44;;;30.69;24.84
74893;BME280;63446;56.272;43.922;2023-04-24T02:47:06;100815.81;;;31.50;24.18
74893;BME280;63446;56.272;43.922;2023-04-24T02:49:34;100819.78;;;32.35;23.24
74893;BME280;63446;56.272;43.922;2023-04-24T02:52:00;100823.84;;;33.22;22.51
74893;BME280;63446;56.272;43.922;2023-04-24T02:54:26;100816.34;;;34.04;21.94
74893;BME280;63446;56.272;43.922;2023-04-24T02:56:52;100820.72;;;34.85;21.01
74893;BME280;63446;56.272;43.922;2023-04-24T02:59:18;100832.03;;;35.59;20.57
74893;BME280;63446;56.272;43.922;2023-04-24T03:01:44;100831.00;;;36.31;19.73
74893;BME280;63446;56.272;43.922;2023-04-24T03:04:10;100834.53;;;37.03;19.28
74893;BME280;63446;56.272;43.922;2023-04-24T03:06:37;100840.91;;;37.76;18.92
74893;BME280;63446;56.272;43.922;2023-04-24T03:09:03;100839.69;;;38.47;18.26
74893;BME280;63446;56.272;43.922;2023-04-24T03:11:31;100841.03;;;39.17;17.92
74893;BME280;63446;56.272;43.922;2023-04-24T03:13:57;100844.44;;;39.80;17.73
74893;BME280;63446;56.272;43.922;2023-04-24T03:16:22;100831.06;;;40.43;17.15
74893;BME280;63446;56.272;43.922;2023-04-24T03:18:49;100841.69;;;41.05;16.96
74893;BME280;63446;56.272;43.922;2023-04-24T03:21:15;100845.41;;;41.68;16.63
74893;BME280;63446;56.272;43.922;2023-04-24T03:23:42;100844.97;;;42.24;16.33
74893;BME280;63446;56.272;43.922;2023-04-24T03:26:09;100850.69;;;42.74;15.98
74893;BME280;63446;56.272;43.922;2023-04-24T03:28:40;100846.69;;;43.25;15.81
74893;BME280;63446;56.272;43.922;2023-04-24T03:31:06;100844.28;;;43.73;15.61
74893;BME280;63446;56.272;43.922;2023-04-24T03:33:35;100852.94;;;44.22;15.07
74893;BME280;63446;56.272;43.922;2023-04-24T03:36:02;100845.28;;;44.69;14.96
74893;BME280;63446;56.272;43.922;2023-04-24T03:38:36;100845.13;;;45.15;14.78
74893;BME280;63446;56.272;43.922;2023-04-24T03:41:22;100850.72;;;45.69;14.51
74893;BME280;63446;56.272;43.922;2023-04-24T03:43:53;100854.41;;;46.15;14.29
74893;BME280;63446;56.272;43.922;2023-04-24T03:46:19;100858.00;;;46.55;14.23
74893;BME280;63446;56.272;43.922;2023-04-24T03:48:52;100853.72;;;46.98;14.11
74893;BME280;63446;56.272;43.922;2023-04-24T03:51:21;100856.16;;;47.36;13.60
74893;BME280;63446;56.272;43.922;2023-04-24T03:53:50;100858.09;;;47.69;13.59
74893;BME280;63446;56.272;43.922;2023-04-24T03:56:18;100858.69;;;47.98;13.16
74893;BME280;63446;56.272;43.922;2023-04-24T03:58:45;100859.03;;;48.24;13.67
74893;BME280;63446;56.272;43.922;2023-04-24T04:01:11;100853.53;;;48.49;13.48
74893;BME280;63446;56.272;43.922;2023-04-24T04:03:46;100862.25;;;48.70;13.21
74893;BME280;63446;56.272;43.922;2023-04-24T04:06:16;100860.53;;;48.91;13.14
74893;BME280;63446;56.272;43.922;2023-04-24T04:08:42;100857.22;;;49.17;13.08
74893;BME280;63446;56.272;43.922;2023-04-24T04:11:08;100864.84;;;49.41;12.96
74893;BME280;63446;56.272;43.922;2023-04-24T04:13:34;100856.22;;;49.58;12.87
74893;BME280;63446;56.272;43.922;2023-04-24T04:16:01;100853.41;;;49.77;12.73
74893;BME280;63446;56.272;43.922;2023-04-24T04:18:26;100860.47;;;50.02;12.78
74893;BME280;63446;56.272;43.922;2023-04-24T04:20:53;100855.94;;;50.31;12.40
74893;BME280;63446;56.272;43.922;2023-04-24T04:23:18;100868.81;;;50.59;12.45
74893;BME280;63446;56.272;43.922;2023-04-24T04:26:04;100861.38;;;50.88;12.43
74893;BME280;63446;56.272;43.922;2023-04-24T04:28:46;100868.53;;;51.16;12.23
74893;BME280;63446;56.272;43.922;2023-04-24T04:31:13;100870.56;;;51.42;12.22
74893;BME280;63446;56.272;43.922;2023-04-24T04:33:39;100864.91;;;51.68;12.22
74893;BME280;63446;56.272;43.922;2023-04-24T04:36:06;100866.25;;;51.88;11.78
74893;BME280;63446;56.272;43.922;2023-04-24T04:38:37;100860.44;;;52.07;12.14
74893;BME280;63446;56.272;43.922;2023-04-24T04:41:14;100875.53;;;52.31;11.88
74893;BME280;63446;56.272;43.922;2023-04-24T04:43:43;100866.72;;;52.55;11.78
74893;BME280;63446;56.272;43.922;2023-04-24T04:46:10;100865.94;;;52.76;11.93
74893;BME280;63446;56.272;43.922;2023-04-24T04:48:55;100877.97;;;53.05;11.93
74893;BME280;63446;56.272;43.922;2023-04-24T04:51:23;100871.72;;;53.35;11.61
74893;BME280;63446;56.272;43.922;2023-04-24T04:53:49;100870.53;;;53.59;11.64
74893;BME280;63446;56.272;43.922;2023-04-24T04:56:15;100875.66;;;53.76;11.45
74893;BME280;63446;56.272;43.922;2023-04-24T04:58:44;100868.75;;;53.92;11.53
74893;BME280;63446;56.272;43.922;2023-04-24T05:01:14;100879.88;;;54.05;11.04
74893;BME280;63446;56.272;43.922;2023-04-24T05:03:42;100876.50;;;54.14;11.05
74893;BME280;63446;56.272;43.922;2023-04-24T05:06:11;100881.81;;;54.26;11.22
74893;BME280;63446;56.272;43.922;2023-04-24T05:08:39;100871.97;;;54.42;11.43
74893;BME280;63446;56.272;43.922;2023-04-24T05:11:08;100862.56;;;54.55;11.22
74893;BME280;63446;56.272;43.922;2023-04-24T05:13:34;100869.13;;;54.73;11.49
74893;BME280;63446;56.272;43.922;2023-04-24T05:16:02;100868.34;;;54.95;11.05
74893;BME280;63446;56.272;43.922;2023-04-24T05:18:30;100863.97;;;55.09;10.93
74893;BME280;63446;56.272;43.922;2023-04-24T05:20:57;100863.94;;;55.25;10.82
74893;BME280;63446;56.272;43.922;2023-04-24T05:23:24;100862.16;;;55.37;10.81
74893;BME280;63446;56.272;43.922;2023-04-24T05:25:52;100865.34;;;55.49;10.75
74893;BME280;63446;56.272;43.922;2023-04-24T05:28:19;100867.56;;;55.58;11.01
74893;BME280;63446;56.272;43.922;2023-04-24T05:30:55;100860.47;;;55.74;11.10
74893;BME280;63446;56.272;43.922;2023-04-24T05:33:23;100865.28;;;55.89;11.16
74893;BME280;63446;56.272;43.922;2023-04-24T05:35:49;100863.28;;;56.07;11.12
74893;BME280;63446;56.272;43.922;2023-04-24T05:38:16;100868.91;;;56.15;10.65
74893;BME280;63446;56.272;43.922;2023-04-24T05:40:45;100857.91;;;56.19;10.61
74893;BME280;63446;56.272;43.922;2023-04-24T05:43:12;100866.00;;;56.22;10.49
74893;BME280;63446;56.272;43.922;2023-04-24T05:45:38;100861.56;;;56.12;10.98
74893;BME280;63446;56.272;43.922;2023-04-24T05:48:04;100856.97;;;55.58;11.26
74893;BME280;63446;56.272;43.922;2023-04-24T05:50:30;100858.03;;;54.06;11.35
74893;BME280;63446;56.272;43.922;2023-04-24T05:52:56;100855.97;;;51.78;11.67
74893;BME280;63446;56.272;43.922;2023-04-24T05:55:28;100847.44;;;49.24;12.91
74893;BME280;63446;56.272;43.922;2023-04-24T05:57:54;100858.28;;;46.90;13.76
74893;BME280;63446;56.272;43.922;2023-04-24T06:00:20;100856.22;;;44.72;14.45
74893;BME280;63446;56.272;43.922;2023-04-24T06:02:56;100853.53;;;42.64;15.34
74893;BME280;63446;56.272;43.922;2023-04-24T06:05:23;100852.03;;;40.95;16.54
74893;BME280;63446;56.272;43.922;2023-04-24T06:07:52;100852.97;;;39.45;17.04
74893;BME280;63446;56.272;43.922;2023-04-24T06:10:20;100856.28;;;38.12;17.80
74893;BME280;63446;56.272;43.922;2023-04-24T06:12:45;100853.59;;;36.97;19.16
74893;BME280;63446;56.272;43.922;2023-04-24T06:15:16;100844.16;;;35.94;19.96
74893;BME280;63446;56.272;43.922;2023-04-24T06:18:08;100860.13;;;34.94;21.69
74893;BME280;63446;56.272;43.922;2023-04-24T06:20:37;100854.44;;;34.22;21.61
74893;BME280;63446;56.272;43.922;2023-04-24T06:23:03;100859.75;;;33.59;22.11
74893;BME280;63446;56.272;43.922;2023-04-24T06:25:32;100860.97;;;32.96;21.53
74893;BME280;63446;56.272;43.922;2023-04-24T06:27:58;100849.06;;;32.38;22.80
74893;BME280;63446;56.272;43.922;2023-04-24T06:30:24;100857.66;;;31.95;23.10
74893;BME280;63446;56.272;43.922;2023-04-24T06:32:50;100856.34;;;31.55;23.42
74893;BME280;63446;56.272;43.922;2023-04-24T06:35:16;100847.56;;;31.19;23.74
74893;BME280;63446;56.272;43.922;2023-04-24T06:37:46;100851.22;;;30.83;22.66
74893;BME280;63446;56.272;43.922;2023-04-24T06:40:12;100851.66;;;30.50;22.79
74893;BME280;63446;56.272;43.922;2023-04-24T06:42:38;100853.28;;;30.19;23.94
74893;BME280;63446;56.272;43.922;2023-04-24T06:45:07;100856.34;;;29.92;24.45
74893;BME280;63446;56.272;43.922;2023-04-24T06:47:33;100854.75;;;29.62;24.88
74893;BME280;63446;56.272;43.922;2023-04-24T06:50:00;100858.97;;;29.46;25.20
74893;BME280;63446;56.272;43.922;2023-04-24T06:52:26;100868.25;;;29.27;24.27
74893;BME280;63446;56.272;43.922;2023-04-24T06:54:59;100873.25;;;29.07;24.73
74893;BME280;63446;56.272;43.922;2023-04-24T06:57:26;100868.44;;;28.89;24.80
74893;BME280;63446;56.272;43.922;2023-04-24T06:59:52;100870.31;;;28.75;24.71
74893;BME280;63446;56.272;43.922;2023-04-24T07:02:17;100871.03;;;28.61;25.61
74893;BME280;63446;56.272;43.922;2023-04-24T07:04:44;100863.53;;;28.43;25.48
74893;BME280;63446;56.272;43.922;2023-04-24T07:07:12;100865.31;;;28.29;24.80
74893;BME280;63446;56.272;43.922;2023-04-24T07:09:40;100876.06;;;28.11;25.26
74893;BME280;63446;56.272;43.922;2023-04-24T07:12:11;100873.59;;;27.95;25.36
74893;BME280;63446;56.272;43.922;2023-04-24T07:14:38;100866.13;;;27.85;26.29
74893;BME280;63446;56.272;43.922;2023-04-24T07:17:05;100871.13;;;27.79;25.46
74893;BME280;63446;56.272;43.922;2023-04-24T07:19:35;100866.81;;;27.74;24.61
74893;BME280;63446;56.272;43.922;2023-04-24T07:22:03;100875.97;;;27.63;24.69
74893;BME280;63446;56.272;43.922;2023-04-24T07:24:29;100868.44;;;27.45;25.61
74893;BME280;63446;56.272;43.922;2023-04-24T07:26:58;100870.28;;;27.38;24.77
74893;BME280;63446;56.272;43.922;2023-04-24T07:29:24;100870.97;;;27.31;24.43
74893;BME280;63446;56.272;43.922;2023-04-24T07:31:50;100877.09;;;27.24;24.45
74893;BME280;63446;56.272;43.922;2023-04-24T07:34:16;100872.31;;;27.14;24.53
74893;BME280;63446;56.272;43.922;2023-04-24T07:36:42;100873.72;;;27.05;24.23
74893;BME280;63446;56.272;43.922;2023-04-24T07:39:08;100870.47;;;26.92;25.61
74893;BME280;63446;56.272;43.922;2023-04-24T07:41:34;100874.63;;;26.86;24.79
74893;BME280;63446;56.272;43.922;2023-04-24T07:44:00;100869.53;;;26.81;24.89
74893;BME280;63446;56.272;43.922;2023-04-24T07:46:27;100879.13;;;26.74;24.84
74893;BME280;63446;56.272;43.922;2023-04-24T07:48:55;100873.25;;;26.69;25.06
74893;BME280;63446;56.272;43.922;2023-04-24T07:51:21;100877.88;;;26.68;26.37
74893;BME280;63446;56.272;43.922;2023-04-24T07:53:48;100869.81;;;26.72;25.64
74893;BME280;63446;56.272;43.922;2023-04-24T07:56:14;100871.72;;;26.71;25.29
74893;BME280;63446;56.272;43.922;2023-04-24T07:58:41;100863.91;;;26.66;25.19
74893;BME280;63446;56.272;43.922;2023-04-24T08:01:07;100865.38;;;26.60;25.04
74893;BME280;63446;56.272;43.922;2023-04-24T08:03:33;100861.47;;;26.58;25.38
74893;BME280;63446;56.272;43.922;2023-04-24T08:06:00;100863.75;;;26.56;25.25
74893;BME280;63446;56.272;43.922;2023-04-24T08:08:26;100868.91;;;26.64;24.65
74893;BME280;63446;56.272;43.922;2023-04-24T08:10:51;100870.03;;;26.63;26.08
74893;BME280;63446;56.272;43.922;2023-04-24T08:13:17;100865.78;;;26.62;25.35
74893;BME280;63446;56.272;43.922;2023-04-24T08:15:43;100865.00;;;26.62;25.13
74893;BME280;63446;56.272;43.922;2023-04-24T08:18:09;100865.81;;;26.66;25.88
74893;BME280;63446;56.272;43.922;2023-04-24T08:20:37;100864.00;;;26.73;26.52
74893;BME280;63446;56.272;43.922;2023-04-24T08:23:04;100864.47;;;26.79;26.36
74893;BME280;63446;56.272;43.922;2023-04-24T08:25:30;100857.97;;;26.84;26.15
74893;BME280;63446;56.272;43.922;2023-04-24T08:27:55;100852.19;;;26.89;25.37
74893;BME280;63446;56.272;43.922;2023-04-24T08:30:22;100863.00;;;26.85;25.32
74893;BME280;63446;56.272;43.922;2023-04-24T08:32:48;100864.88;;;26.81;25.30
74893;BME280;63446;56.272;43.922;2023-04-24T08:35:14;100849.34;;;26.78;25.05
74893;BME280;63446;56.272;43.922;2023-04-24T08:37:40;100840.81;;;26.76;25.09
74893;BME280;63446;56.272;43.922;2023-04-24T08:40:16;100831.47;;;26.73;26.04
74893;BME280;63446;56.272;43.922;2023-04-24T08:42:43;100848.88;;;26.72;25.28
74893;BME280;63446;56.272;43.922;2023-04-24T08:45:11;100843.03;;;26.70;25.29
74893;BME280;63446;56.272;43.922;2023-04-24T08:47:40;100840.66;;;26.65;25.17
74893;BME280;63446;56.272;43.922;2023-04-24T08:50:08;100839.81;;;26.61;24.60
74893;BME280;63446;56.272;43.922;2023-04-24T08:52:35;100837.84;;;26.58;25.06
74893;BME280;63446;56.272;43.922;2023-04-24T08:55:01;100832.03;;;26.60;25.54
74893;BME280;63446;56.272;43.922;2023-04-24T08:57:32;100834.81;;;26.63;25.32
74893;BME280;63446;56.272;43.922;2023-04-24T08:59:58;100829.81;;;26.65;24.95
74893;BME280;63446;56.272;43.922;2023-04-24T09:02:25;100829.81;;;26.65;25.09
74893;BME280;63446;56.272;43.922;2023-04-24T09:04:52;100816.22;;;26.62;24.71
74893;BME280;63446;56.272;43.922;2023-04-24T09:07:19;100822.72;;;26.57;25.03
74893;BME280;63446;56.272;43.922;2023-04-24T09:09:45;100823.41;;;26.50;24.75
74893;BME280;63446;56.272;43.922;2023-04-24T09:12:12;100815.50;;;26.42;24.71
74893;BME280;63446;56.272;43.922;2023-04-24T09:14:38;100816.97;;;26.36;24.91
74893;BME280;63446;56.272;43.922;2023-04-24T09:17:08;100816.84;;;26.28;24.80
74893;BME280;63446;56.272;43.922;2023-04-24T09:19:34;100814.84;;;26.22;24.44
74893;BME280;63446;56.272;43.922;2023-04-24T09:22:04;100816.66;;;26.14;24.88
74893;BME280;63446;56.272;43.922;2023-04-24T09:24:31;100818.94;;;26.12;24.40
74893;BME280;63446;56.272;43.922;2023-04-24T09:26:58;100822.06;;;26.14;24.54
74893;BME280;63446;56.272;43.922;2023-04-24T09:29:24;100813.56;;;26.16;23.97
74893;BME280;63446;56.272;43.922;2023-04-24T09:31:51;100808.88;;;26.13;24.74
74893;BME280;63446;56.272;43.922;2023-04-24T09:34:27;100803.06;;;26.11;26.09
74893;BME280;63446;56.272;43.922;2023-04-24T09:36:53;100804.66;;;26.15;24.74
74893;BME280;63446;56.272;43.922;2023-04-24T09:39:20;100796.91;;;26.14;24.48
74893;BME280;63446;56.272;43.922;2023-04-24T09:41:53;100793.78;;;26.12;24.16
74893;BME280;63446;56.272;43.922;2023-04-24T09:44:23;100795.16;;;26.02;24.14
74893;BME280;63446;56.272;43.922;2023-04-24T09:46:55;100795.47;;;25.97;24.54
74893;BME280;63446;56.272;43.922;2023-04-24T09:49:26;100805.22;;;26.01;25.01
74893;BME280;63446;56.272;43.922;2023-04-24T09:52:07;100801.44;;;26.06;24.81
74893;BME280;63446;56.272;43.922;2023-04-24T09:54:33;100797.56;;;26.07;25.02
74893;BME280;63446;56.272;43.922;2023-04-24T09:56:59;100794.88;;;26.07;25.09
74893;BME280;63446;56.272;43.922;2023-04-24T09:59:28;100794.16;;;26.10;24.76
74893;BME280;63446;56.272;43.922;2023-04-24T10:01:55;100791.84;;;26.12;24.90
74893;BME280;63446;56.272;43.922;2023-04-24T10:04:27;100793.00;;;26.11;24.68
74893;BME280;63446;56.272;43.922;2023-04-24T10:06:55;100783.31;;;26.10;25.84
74893;BME280;63446;56.272;43.922;2023-04-24T10:09:23;100774.81;;;26.12;24.62
74893;BME280;63446;56.272;43.922;2023-04-24T10:11:51;100781.00;;;26.12;24.66
74893;BME280;63446;56.272;43.922;2023-04-24T10:14:23;100774.38;;;26.10;24.14
74893;BME280;63446;56.272;43.922;2023-04-24T10:16:53;100777.47;;;26.08;25.39
74893;BME280;63446;56.272;43.922;2023-04-24T10:19:19;100782.88;;;26.08;24.57
74893;BME280;63446;56.272;43.922;2023-04-24T10:21:46;100774.75;;;26.08;24.17
74893;BME280;63446;56.272;43.922;2023-04-24T10:24:17;100771.28;;;26.08;25.07
74893;BME280;63446;56.272;43.922;2023-04-24T10:26:45;100776.31;;;26.09;25.14
74893;BME280;63446;56.272;43.922;2023-04-24T10:29:12;100779.47;;;26.11;24.45
74893;BME280;63446;56.272;43.922;2023-04-24T10:31:39;100772.47;;;26.10;24.60
74893;BME280;63446;56.272;43.922;2023-04-24T10:34:09;100767.78;;;26.07;24.32
74893;BME280;63446;56.272;43.922;2023-04-24T10:36:40;100764.59;;;26.01;24.06
74893;BME280;63446;56.272;43.922;2023-04-24T10:39:11;100760.22;;;25.93;24.09
74893;BME280;63446;56.272;43.922;2023-04-24T10:41:39;100765.88;;;25.85;24.56
74893;BME280;63446;56.272;43.922;2023-04-24T10:46:32;100770.47;;;25.80;24.37
74893;BME280;63446;56.272;43.922;2023-04-24T10:48:57;100760.78;;;25.79;24.14
74893;BME280;63446;56.272;43.922;2023-04-24T10:51:24;100758.06;;;25.79;24.27
74893;BME280;63446;56.272;43.922;2023-04-24T10:54:29;100747.16;;;25.76;24.83
74893;BME280;63446;56.272;43.922;2023-04-24T11:02:39;100731.56;;;25.69;24.34
74893;BME280;63446;56.272;43.922;2023-04-24T11:05:07;100748.53;;;25.66;24.08
74893;BME280;63446;56.272;43.922;2023-04-24T11:10:39;100739.09;;;25.56;24.82
74893;BME280;63446;56.272;43.922;2023-04-24T11:13:05;100740.16;;;25.52;24.97
74893;BME280;63446;56.272;43.922;2023-04-24T11:15:31;100748.28;;;25.52;24.77
74893;BME280;63446;56.272;43.922;2023-04-24T11:17:57;100743.69;;;25.52;24.17
74893;BME280;63446;56.272;43.922;2023-04-24T11:20:23;100746.78;;;25.54;23.86
74893;BME280;63446;56.272;43.922;2023-04-24T11:22:54;100730.50;;;25.51;23.81
74893;BME280;63446;56.272;43.922;2023-04-24T11:25:21;100726.22;;;25.50;24.27
74893;BME280;63446;56.272;43.922;2023-04-24T11:28:03;100735.44;;;25.45;24.71
74893;BME280;63446;56.272;43.922;2023-04-24T11:30:29;100738.56;;;25.47;24.67
74893;BME280;63446;56.272;43.922;2023-04-24T11:33:02;100734.28;;;25.46;24.32
74893;BME280;63446;56.272;43.922;2023-04-24T11:35:29;100725.75;;;25.44;24.48
74893;BME280;63446;56.272;43.922;2023-04-24T11:37:56;100714.13;;;25.44;24.61
74893;BME280;63446;56.272;43.922;2023-04-24T11:40:23;100714.50;;;25.42;24.17
74893;BME280;63446;56.272;43.922;2023-04-24T11:42:51;100709.41;;;25.37;24.87
74893;BME280;63446;56.272;43.922;2023-04-24T11:45:20;100709.34;;;25.33;24.58
74893;BME280;63446;56.272;43.922;2023-04-24T11:47:46;100714.75;;;25.33;24.33
74893;BME280;63446;56.272;43.922;2023-04-24T11:50:14;100712.38;;;25.32;24.23
74893;BME280;63446;56.272;43.922;2023-04-24T11:52:41;100707.34;;;25.30;24.31
74893;BME280;63446;56.272;43.922;2023-04-24T11:57:41;100697.69;;;25.29;24.38
74893;BME280;63446;56.272;43.922;2023-04-24T12:00:16;100697.63;;;25.26;24.65
74893;BME280;63446;56.272;43.922;2023-04-24T12:02:43;100690.28;;;25.26;24.53
74893;BME280;63446;56.272;43.922;2023-04-24T12:05:08;100688.22;;;25.20;24.25
74893;BME280;63446;56.272;43.922;2023-04-24T12:07:41;100693.56;;;25.16;24.41
74893;BME280;63446;56.272;43.922;2023-04-24T12:10:08;100690.41;;;25.11;24.52
74893;BME280;63446;56.272;43.922;2023-04-24T12:12:34;100681.41;;;25.06;24.56
74893;BME280;63446;56.272;43.922;2023-04-24T12:15:01;100684.81;;;25.03;24.91
74893;BME280;63446;56.272;43.922;2023-04-24T12:17:33;100687.47;;;25.00;24.85
74893;BME280;63446;56.272;43.922;2023-04-24T12:20:04;100681.53;;;24.94;24.43
74893;BME280;63446;56.272;43.922;2023-04-24T12:22:48;100679.84;;;24.86;24.37
74893;BME280;63446;56.272;43.922;2023-04-24T12:25:17;100675.53;;;24.81;24.47
74893;BME280;63446;56.272;43.922;2023-04-24T12:27:44;100667.28;;;24.74;24.66
74893;BME280;63446;56.272;43.922;2023-04-24T12:30:16;100671.06;;;24.70;24.88
74893;BME280;63446;56.272;43.922;2023-04-24T12:32:48;100673.75;;;24.70;24.65
74893;BME280;63446;56.272;43.922;2023-04-24T12:35:25;100670.75;;;24.75;24.71
74893;BME280;63446;56.272;43.922;2023-04-24T12:37:52;100671.97;;;24.77;24.40
74893;BME280;63446;56.272;43.922;2023-04-24T12:40:20;100672.69;;;24.74;24.25
74893;BME280;63446;56.272;43.922;2023-04-24T12:42:49;100665.66;;;24.70;24.41
74893;BME280;63446;56.272;43.922;2023-04-24T12:45:19;100671.75;;;24.67;24.56
74893;BME280;63446;56.272;43.922;2023-04-24T12:47:45;100658.53;;;24.62;24.39
74893;BME280;63446;56.272;43.922;2023-04-24T12:50:13;100658.91;;;24.60;24.51
74893;BME280;63446;56.272;43.922;2023-04-24T12:52:40;100655.00;;;24.57;24.50
74893;BME280;63446;56.272;43.922;2023-04-24T12:55:07;100659.94;;;24.55;24.82
74893;BME280;63446;56.272;43.922;2023-04-24T12:57:37;100651.78;;;24.52;24.43